Time;durP1;ratioP1;P1;durP2;ratioP2;P2;SDS_P1;SDS_P2;PMS_P1;PMS_P2;Temp;Humidity;BMP_temperature;BMP_pressure;BME280_temperature;BME280_humidity;BME280_pressure;Samples;Min_cycle;Max_cycle;Signal;HPM_P1;HPM_P2
2022/12/07 00:05:58;;;;;;;10.25;5.58;;;;;;;8.92;81.24;98629.47;4189762;82;28561;-75
2022/12/07 00:11:59;;;;;;;10.48;5.10;;;;;;;9.02;79.72;98633.73;4200163;82;28534;-75
2022/12/07 00:18:01;;;;;;;8.58;4.83;;;;;;;8.81;80.65;98624.90;4215097;82;28517;-76
2022/12/07 00:24:05;;;;;;;8.43;4.83;;;;;;;9.00;80.90;98635.01;4241893;82;28507;-75
2022/12/07 00:30:07;;;;;;;7.55;4.80;;;;;;;8.99;80.16;98628.84;4201324;82;28523;-74
2022/12/07 00:36:12;;;;;;;7.47;4.65;;;;;;;8.80;81.17;98622.76;4260182;82;28533;-75
2022/12/07 00:42:13;;;;;;;7.60;4.47;;;;;;;9.10;80.29;98627.21;4241799;82;45772;-77
2022/12/07 00:48:15;;;;;;;7.22;4.15;;;;;;;9.26;79.77;98624.91;4304350;81;28531;-76
2022/12/07 00:54:16;;;;;;;7.95;4.92;;;;;;;9.32;79.43;98621.28;4191308;82;28547;-76
2022/12/07 01:00:18;;;;;;;8.65;4.80;;;;;;;9.34;79.13;98618.66;4238050;82;28529;-75
2022/12/07 01:06:22;;;;;;;8.95;4.58;;;;;;;9.29;79.58;98617.22;4216509;82;28475;-77
2022/12/07 01:12:23;;;;;;;8.00;4.28;;;;;;;9.46;79.30;98615.98;4231249;82;28531;-77
2022/12/07 01:18:25;;;;;;;7.47;4.17;;;;;;;9.51;79.69;98611.26;4235918;82;28496;-76
2022/12/07 01:24:26;;;;;;;8.30;4.55;;;;;;;9.46;79.59;98605.25;4181458;82;28531;-75
2022/12/07 01:30:27;;;;;;;8.53;4.33;;;;;;;9.42;80.12;98604.06;4219650;82;28503;-75
2022/12/07 01:36:32;;;;;;;8.13;4.65;;;;;;;9.34;79.98;98604.45;4219442;82;28507;-75
2022/12/07 01:42:34;;;;;;;7.92;4.45;;;;;;;9.45;78.25;98598.25;4255576;82;28537;-75
2022/12/07 01:48:41;;;;;;;9.55;5.28;;;;;;;9.63;76.92;98593.27;4251980;81;28605;-74
2022/12/07 01:54:45;;;;;;;9.90;4.95;;;;;;;9.74;76.74;98601.54;4238019;82;28511;-74
2022/12/07 02:00:47;;;;;;;9.53;4.75;;;;;;;9.72;76.39;98598.28;4197030;82;28542;-74
2022/12/07 02:06:50;;;;;;;9.05;5.00;;;;;;;9.65;76.53;98593.05;4216406;82;28526;-74
2022/12/07 02:13:08;;;;;;;8.93;5.17;;;;;;;9.59;75.85;98588.61;4237708;82;28559;-76
2022/12/07 02:19:47;;;;;;;8.70;4.85;;;;;;;9.63;75.27;98589.75;4235560;82;28567;-75
2022/12/07 02:26:11;;;;;;;10.55;5.22;;;;;;;9.45;76.37;98582.16;4236210;82;28497;-74
2022/12/07 02:32:30;;;;;;;8.70;4.67;;;;;;;9.73;74.90;98591.86;4221146;82;28543;-74
2022/12/07 02:38:49;;;;;;;9.28;5.00;;;;;;;9.54;74.76;98591.19;4231291;82;28551;-74
2022/12/07 02:44:52;;;;;;;7.70;5.15;;;;;;;9.34;74.61;98588.34;4233433;82;28607;-74
2022/12/07 02:50:55;;;;;;;9.20;5.45;;;;;;;9.37;75.29;98582.50;4234077;82;28539;-74
2022/12/07 02:57:07;;;;;;;7.62;4.85;;;;;;;9.47;74.24;98576.02;4235609;82;28526;-74
2022/12/07 03:03:12;;;;;;;10.70;5.53;;;;;;;9.33;74.70;98582.70;4235153;82;28576;-74
2022/12/07 03:09:25;;;;;;;9.25;5.30;;;;;;;9.52;74.22;98563.24;4236713;82;28574;-74
2022/12/07 03:15:47;;;;;;;8.70;4.95;;;;;;;9.56;73.40;98567.07;4202632;82;28497;-75
2022/12/07 03:21:57;;;;;;;8.45;4.97;;;;;;;9.41;73.37;98566.22;4217159;82;28489;-74
2022/12/07 03:28:03;;;;;;;9.40;5.78;;;;;;;9.42;74.96;98562.48;4213294;82;28488;-74
2022/12/07 03:34:16;;;;;;;10.70;5.55;;;;;;;9.35;74.98;98563.95;4197875;82;28554;-75
2022/12/07 03:40:50;;;;;;;11.63;6.25;;;;;;;9.52;74.74;98553.02;4183477;84;28573;-74
2022/12/07 03:47:28;;;;;;;10.70;6.08;;;;;;;9.63;74.56;98542.78;4154491;84;28625;-74
2022/12/07 03:53:35;;;;;;;9.55;5.87;;;;;;;9.41;75.31;98544.75;4174670;84;28479;-75
2022/12/07 03:59:39;;;;;;;9.63;5.62;;;;;;;9.40;76.35;98537.75;4173813;84;28523;-75
2022/12/07 04:05:41;;;;;;;11.22;7.08;;;;;;;9.62;75.44;98530.42;4176834;84;28610;-75
2022/12/07 04:11:43;;;;;;;11.30;6.33;;;;;;;9.26;77.98;98525.11;4181167;84;28525;-74
2022/12/07 04:17:44;;;;;;;14.00;6.70;;;;;;;9.24;78.56;98530.45;4167526;84;28527;-75
2022/12/07 04:23:45;;;;;;;13.53;7.65;;;;;;;9.38;78.17;98533.16;4162856;84;28557;-75
2022/12/07 04:29:47;;;;;;;14.10;8.15;;;;;;;9.31;78.57;98523.90;4163354;84;28575;-74
2022/12/07 04:35:48;;;;;;;12.50;7.70;;;;;;;9.39;78.50;98525.39;4227557;82;28565;-75
2022/12/07 04:41:50;;;;;;;15.28;8.08;;;;;;;9.43;78.82;98518.52;4255299;82;28584;-75
2022/12/07 04:47:51;;;;;;;15.28;8.18;;;;;;;9.31;78.95;98519.05;4239499;82;28555;-76
2022/12/07 04:53:53;;;;;;;13.68;8.30;;;;;;;9.28;80.05;98526.23;4229235;82;28515;-74
2022/12/07 04:59:54;;;;;;;14.45;8.05;;;;;;;9.21;80.33;98523.67;4203183;82;28526;-75
2022/12/07 05:05:55;;;;;;;15.30;9.38;;;;;;;9.62;79.49;98516.48;4249101;82;28572;-77
2022/12/07 05:11:57;;;;;;;15.15;8.53;;;;;;;9.78;77.33;98514.09;4250971;82;28529;-76
2022/12/07 05:17:58;;;;;;;13.43;7.92;;;;;;;9.97;76.71;98509.88;4248330;82;28550;-76
2022/12/07 05:23:59;;;;;;;12.05;6.97;;;;;;;9.91;76.89;98514.34;4252090;82;28523;-77
2022/12/07 05:30:00;;;;;;;11.15;6.90;;;;;;;9.79;76.02;98510.38;4221782;82;28595;-77
2022/12/07 05:36:05;;;;;;;11.15;7.17;;;;;;;9.74;76.18;98514.29;4170440;82;28527;-77
2022/12/07 05:42:14;;;;;;;12.65;7.85;;;;;;;9.66;76.69;98520.03;4153502;84;28520;-77
2022/12/07 05:48:15;;;;;;;10.65;7.03;;;;;;;9.79;78.03;98527.00;4151887;84;28486;-77
2022/12/07 05:54:17;;;;;;;10.58;6.37;;;;;;;8.95;81.42;98541.05;4170563;84;28545;-74
2022/12/07 06:00:19;;;;;;;8.73;5.65;;;;;;;8.71;83.83;98536.48;4144571;84;28612;-74
2022/12/07 06:06:20;;;;;;;7.58;4.67;;;;;;;8.57;82.77;98540.44;4147691;84;28535;-77
2022/12/07 06:12:35;;;;;;;8.65;4.22;;;;;;;8.85;81.73;98542.45;4157578;84;28519;-75
2022/12/07 06:18:36;;;;;;;7.92;4.20;;;;;;;8.71;82.43;98541.84;4145404;84;28542;-75
2022/12/07 06:24:38;;;;;;;7.58;4.70;;;;;;;8.90;81.51;98539.91;4152631;84;28526;-75
2022/12/07 06:30:39;;;;;;;6.78;4.67;;;;;;;8.67;81.74;98548.72;4156770;84;28538;-75
2022/12/07 06:36:43;;;;;;;8.70;4.95;;;;;;;8.91;81.08;98548.75;4153378;83;28553;-75
2022/12/07 06:42:44;;;;;;;8.83;4.80;;;;;;;9.10;80.17;98549.98;4162446;84;28607;-76
2022/12/07 06:48:45;;;;;;;9.48;5.65;;;;;;;8.59;79.88;98553.91;4162189;84;28506;-76
2022/12/07 06:54:47;;;;;;;8.75;4.62;;;;;;;8.97;78.08;98558.55;4160902;84;28547;-77
2022/12/07 07:00:50;;;;;;;8.85;5.20;;;;;;;8.72;79.46;98561.44;4160944;84;28502;-77
2022/12/07 07:06:51;;;;;;;9.05;5.53;;;;;;;8.74;79.94;98560.67;4161059;84;28604;-77
2022/12/07 07:12:52;;;;;;;9.58;5.83;;;;;;;8.73;80.53;98564.41;4162554;84;28543;-75
2022/12/07 07:18:54;;;;;;;10.82;6.85;;;;;;;8.61;81.32;98565.20;4155300;84;28550;-75
2022/12/07 07:24:55;;;;;;;11.57;6.67;;;;;;;8.96;80.49;98567.65;4160464;83;28519;-76
2022/12/07 07:30:56;;;;;;;12.10;6.83;;;;;;;8.98;79.38;98570.91;4169934;84;28525;-81
2022/12/07 07:36:58;;;;;;;12.25;6.92;;;;;;;8.93;78.76;98568.09;4236628;82;28534;-79
2022/12/07 07:42:59;;;;;;;12.58;7.22;;;;;;;8.80;79.40;98577.19;4261433;82;28541;-80
2022/12/07 07:49:00;;;;;;;13.40;6.90;;;;;;;9.17;77.82;98575.63;4240635;82;28560;-77
2022/12/07 07:55:02;;;;;;;13.98;8.18;;;;;;;9.40;76.87;98577.20;4280889;82;28529;-77
2022/12/07 08:01:07;;;;;;;11.73;7.37;;;;;;;8.78;79.44;98578.75;4247815;82;28563;-77
2022/12/07 08:07:08;;;;;;;11.65;7.42;;;;;;;9.00;79.55;98587.58;4262790;82;28528;-77
2022/12/07 08:13:15;;;;;;;10.13;5.92;;;;;;;8.69;80.16;98586.83;4306286;82;28499;-77
2022/12/07 08:19:18;;;;;;;10.30;6.25;;;;;;;9.06;78.47;98595.21;4238524;82;28581;-78
2022/12/07 08:25:20;;;;;;;12.40;6.70;;;;;;;9.34;77.48;98597.73;4239239;82;28561;-77
2022/12/07 08:31:22;;;;;;;9.85;6.55;;;;;;;9.25;77.90;98602.62;4265982;82;28520;-78
2022/12/07 08:37:23;;;;;;;10.38;6.58;;;;;;;9.25;77.30;98602.62;4266837;82;28506;-76
2022/12/07 08:43:25;;;;;;;11.97;6.97;;;;;;;9.26;76.71;98606.93;4227127;82;28535;-79
2022/12/07 08:49:35;;;;;;;10.48;6.47;;;;;;;8.77;79.00;98609.80;4239601;82;28544;-77
2022/12/07 08:55:36;;;;;;;13.60;8.05;;;;;;;8.96;78.65;98615.08;4271981;82;28558;-77
2022/12/07 09:01:37;;;;;;;11.60;7.35;;;;;;;9.00;79.07;98612.22;4274433;82;28531;-77
2022/12/07 09:07:39;;;;;;;11.28;6.75;;;;;;;9.39;78.25;98619.84;4273774;82;28570;-80
2022/12/07 09:13:40;;;;;;;10.93;6.97;;;;;;;9.73;76.01;98622.73;4280718;82;28522;-78
2022/12/07 09:19:42;;;;;;;11.57;7.25;;;;;;;9.92;74.43;98619.36;4252588;81;28526;-78
2022/12/07 09:25:43;;;;;;;11.78;7.00;;;;;;;10.07;73.33;98612.68;4262478;82;28472;-77
2022/12/07 09:31:45;;;;;;;9.00;5.83;;;;;;;10.34;72.99;98608.90;4269455;82;28523;-77
2022/12/07 09:37:46;;;;;;;8.93;5.97;;;;;;;10.29;71.09;98601.56;4190005;82;28525;-76
2022/12/07 09:43:48;;;;;;;8.00;5.42;;;;;;;10.18;71.82;98598.39;4168840;84;28585;-78
2022/12/07 09:49:49;;;;;;;8.68;5.22;;;;;;;10.25;72.33;98584.81;4162075;84;28561;-77
2022/12/07 09:55:51;;;;;;;8.40;5.05;;;;;;;10.41;71.03;98597.52;4174775;84;28475;-77
2022/12/07 10:01:54;;;;;;;9.20;5.35;;;;;;;10.27;71.03;98588.90;4167496;84;28515;-79
2022/12/07 10:07:55;;;;;;;9.68;5.65;;;;;;;9.87;72.77;98592.41;4168545;84;28581;-80
2022/12/07 10:14:12;;;;;;;8.88;5.78;;;;;;;10.26;71.49;98577.86;4151053;84;28516;-78
2022/12/07 10:20:19;;;;;;;9.08;5.87;;;;;;;10.60;71.08;98569.06;4163603;84;28519;-79
2022/12/07 10:26:47;;;;;;;11.15;5.95;;;;;;;10.64;72.89;98571.56;4164279;84;28532;-78
2022/12/07 10:32:48;;;;;;;7.12;4.78;;;;;;;10.37;71.92;98565.41;4162357;82;28500;-79
2022/12/07 10:39:04;;;;;;;8.83;5.25;;;;;;;10.65;70.57;98561.09;4158692;82;28542;-78
2022/12/07 10:45:18;;;;;;;8.80;5.00;;;;;;;10.69;70.95;98551.47;4157158;84;28603;-78
2022/12/07 10:51:54;;;;;;;7.85;4.75;;;;;;;10.77;70.25;98544.06;4171958;83;28512;-80
2022/12/07 10:57:59;;;;;;;;;;;;;;;10.84;69.80;98542.84;4158446;84;28576;-79
2022/12/07 11:04:37;;;;;;;8.78;4.12;;;;;;;10.91;68.91;98539.18;4175114;84;20249;-79
2022/12/07 11:10:57;;;;;;;6.25;3.85;;;;;;;10.85;68.94;98530.22;4163118;84;28503;-78
2022/12/07 11:17:16;;;;;;;5.78;3.83;;;;;;;11.18;67.63;98532.58;4160768;83;28489;-78
2022/12/07 11:23:28;;;;;;;6.53;4.12;;;;;;;11.33;67.22;98526.59;4197436;84;28498;-78
2022/12/07 11:29:55;;;;;;;5.87;3.52;;;;;;;11.31;66.87;98522.00;4158329;84;28593;-78
2022/12/07 11:36:30;;;;;;;5.80;4.10;;;;;;;11.01;66.70;98518.61;4170047;82;28547;-78
2022/12/07 11:42:37;;;;;;;6.03;4.40;;;;;;;11.35;66.08;98518.26;4224129;83;28542;-77
2022/12/07 11:49:01;;;;;;;7.60;5.05;;;;;;;11.82;64.43;98509.69;4161219;84;28647;-77
2022/12/07 11:55:08;;;;;;;6.12;4.50;;;;;;;11.54;65.04;98508.02;4167006;83;28545;-78
2022/12/07 12:01:40;;;;;;;7.15;4.75;;;;;;;12.00;63.54;98507.18;4165141;84;28535;-78
2022/12/07 12:07:44;;;;;;;6.22;4.15;;;;;;;11.63;63.84;98504.34;4165744;84;28546;-78
2022/12/07 12:14:10;;;;;;;6.05;3.77;;;;;;;11.63;63.54;98495.75;4173725;84;28470;-78
2022/12/07 12:20:32;;;;;;;5.25;3.33;;;;;;;11.79;63.21;98492.70;4156729;84;28558;-78
2022/12/07 12:26:37;;;;;;;4.45;2.98;;;;;;;11.68;61.77;98490.41;4170537;84;28460;-78
2022/12/07 12:32:44;;;;;;;4.15;2.60;;;;;;;11.54;61.71;98484.59;4170574;84;28530;-78
2022/12/07 12:39:15;;;;;;;4.40;2.42;;;;;;;11.72;60.37;98477.26;4194978;83;28476;-77
2022/12/07 12:45:25;;;;;;;3.77;2.27;;;;;;;11.53;60.86;98474.89;4200774;83;28555;-77
2022/12/07 12:51:39;;;;;;;4.72;2.90;;;;;;;10.99;60.18;98476.36;4191549;83;28640;-77
2022/12/07 12:57:40;;;;;;;5.85;3.00;;;;;;;10.95;59.81;98477.09;4190195;83;28487;-77
2022/12/07 13:03:56;;;;;;;5.15;2.92;;;;;;;10.69;60.20;98480.23;4191244;83;28457;-77
2022/12/07 13:09:58;;;;;;;4.97;2.85;;;;;;;10.80;60.36;98485.24;4203508;84;28476;-78
2022/12/07 13:16:14;;;;;;;4.65;2.85;;;;;;;10.58;59.95;98497.26;4190404;83;28552;-79
2022/12/07 13:22:37;;;;;;;;;;;;;;;10.70;59.57;98494.50;4195932;83;28542;-79
2022/12/07 13:28:41;;;;;;;4.95;2.50;;;;;;;10.91;59.53;98489.42;4207050;82;20285;-77
2022/12/07 13:34:43;;;;;;;5.47;2.87;;;;;;;10.63;58.89;98481.73;4193037;82;29010;-77
2022/12/07 13:41:05;;;;;;;5.50;3.50;;;;;;;10.53;59.39;98490.47;4195459;83;28554;-80
2022/12/07 13:47:18;;;;;;;5.80;3.60;;;;;;;10.45;59.35;98500.56;4176023;84;28578;-78
2022/12/07 13:53:19;;;;;;;5.28;3.20;;;;;;;10.33;59.51;98502.48;4204452;83;28578;-78
2022/12/07 13:59:24;;;;;;;5.00;3.05;;;;;;;10.72;59.46;98503.12;4190014;84;28456;-78
2022/12/07 14:05:31;;;;;;;5.42;3.10;;;;;;;10.50;60.31;98511.92;4183289;83;28514;-81
2022/12/07 14:11:32;;;;;;;6.90;3.62;;;;;;;10.67;59.50;98508.41;4173368;85;28531;-79
2022/12/07 14:17:34;;;;;;;5.90;3.47;;;;;;;10.23;59.73;98511.16;4224751;83;28546;-80
2022/12/07 14:23:39;;;;;;;6.15;3.87;;;;;;;9.78;59.36;98522.14;4197183;83;28528;-80
2022/12/07 14:29:40;;;;;;;6.78;4.10;;;;;;;9.63;59.73;98520.80;4166589;84;28506;-80
2022/12/07 14:35:41;;;;;;;7.58;3.75;;;;;;;9.34;59.94;98522.63;4193188;82;28533;-78
2022/12/07 14:41:52;;;;;;;6.20;3.83;;;;;;;9.42;60.02;98518.75;4255594;82;28586;-79
2022/12/07 14:47:55;;;;;;;7.05;3.90;;;;;;;9.65;59.65;98523.77;4283906;82;28558;-80
2022/12/07 14:53:57;;;;;;;6.25;3.98;;;;;;;9.83;59.56;98516.06;4301741;82;28560;-80
2022/12/07 15:00:02;;;;;;;8.35;4.42;;;;;;;9.74;59.62;98519.66;4287301;81;28591;-79
2022/12/07 15:06:05;;;;;;;6.85;4.53;;;;;;;9.99;59.48;98515.83;4312894;81;28485;-81
2022/12/07 15:12:08;;;;;;;8.30;5.15;;;;;;;9.98;59.06;98514.20;4319830;81;28480;-81
2022/12/07 15:18:09;;;;;;;9.58;4.87;;;;;;;10.31;58.84;98523.41;4305008;81;28462;-80
2022/12/07 15:24:12;;;;;;;7.40;4.28;;;;;;;10.13;58.88;98525.23;4307614;81;28611;-84
2022/12/07 15:30:13;;;;;;;9.03;4.87;;;;;;;10.43;58.73;98516.12;4303585;81;28480;-83
2022/12/07 15:36:22;;;;;;;8.23;4.60;;;;;;;10.26;58.10;98529.50;4320324;81;28584;-83
2022/12/07 15:42:24;;;;;;;9.65;4.95;;;;;;;10.49;57.88;98526.94;4302991;82;28500;-83
2022/12/07 15:48:25;;;;;;;11.18;5.20;;;;;;;10.22;58.83;98535.59;4320161;82;28498;-83
2022/12/07 15:54:29;;;;;;;12.93;5.85;;;;;;;10.06;59.47;98547.94;4319941;82;28477;-82
2022/12/07 16:00:30;;;;;;;13.48;6.22;;;;;;;10.34;58.87;98552.47;4319145;82;28480;-82
2022/12/07 16:06:32;;;;;;;13.28;6.22;;;;;;;10.10;59.23;98552.59;4317778;81;28481;-83
2022/12/07 16:12:33;;;;;;;12.35;6.20;;;;;;;10.29;59.44;98550.51;4330304;81;28505;-83
2022/12/07 16:18:35;;;;;;;12.37;6.95;;;;;;;10.23;59.19;98556.03;4286828;81;28485;-82
2022/12/07 16:24:37;;;;;;;13.68;6.72;;;;;;;10.27;59.24;98562.03;4335886;81;28520;-83
2022/12/07 16:30:38;;;;;;;11.30;6.22;;;;;;;10.24;58.79;98564.38;4332916;81;28551;-82
2022/12/07 16:36:40;;;;;;;14.50;6.87;;;;;;;10.23;58.97;98564.89;4337035;81;28513;-83
2022/12/07 16:42:41;;;;;;;11.25;6.12;;;;;;;10.23;58.79;98560.06;4329388;81;28529;-81
2022/12/07 16:48:44;;;;;;;12.18;7.03;;;;;;;10.14;59.24;98563.13;4320767;81;28521;-82
2022/12/07 16:54:48;;;;;;;12.98;6.15;;;;;;;10.14;58.71;98562.30;4327724;81;28591;-82
2022/12/07 17:00:49;;;;;;;11.08;5.92;;;;;;;10.70;57.90;98562.51;4337633;81;28477;-81
2022/12/07 17:06:51;;;;;;;11.33;6.03;;;;;;;10.48;57.20;98565.63;4333423;81;28596;-81
2022/12/07 17:12:54;;;;;;;11.28;6.10;;;;;;;9.77;58.09;98575.55;4321022;81;28511;-79
2022/12/07 17:18:59;;;;;;;12.07;6.33;;;;;;;9.54;58.75;98573.20;4310182;81;28548;-85
2022/12/07 17:25:00;;;;;;;11.15;5.37;;;;;;;9.19;59.37;98572.72;4317805;81;28549;-84
2022/12/07 17:31:09;;;;;;;13.48;6.28;;;;;;;9.01;59.57;98572.31;4316785;81;28529;-86
2022/12/07 17:37:09;;;;;;;11.20;5.37;;;;;;;8.80;59.88;98578.53;4323618;81;28500;-93
2022/12/07 17:43:12;;;;;;;9.45;5.05;;;;;;;9.02;59.53;98571.27;4326393;79;28540;-86
2022/12/07 17:49:14;;;;;;;10.38;5.42;;;;;;;8.78;59.77;98576.58;4341732;81;28509;-87
2022/12/07 17:55:16;;;;;;;11.43;5.50;;;;;;;8.47;60.51;98584.64;4265355;82;28552;-86
2022/12/07 18:01:17;;;;;;;9.38;4.87;;;;;;;8.87;59.54;98586.46;4273570;82;28498;-85
2022/12/07 18:07:18;;;;;;;9.70;4.53;;;;;;;8.73;59.92;98600.59;4252832;82;28467;-84
2022/12/07 18:13:35;;;;;;;9.40;4.80;;;;;;;8.91;59.58;98585.77;4292707;82;28886;-86
2022/12/07 18:19:36;;;;;;;8.85;4.78;;;;;;;8.99;59.63;98577.91;4301489;82;28523;-84
2022/12/07 18:25:37;;;;;;;10.32;5.28;;;;;;;9.16;59.45;98574.00;4290730;82;28510;-84
2022/12/07 18:31:39;;;;;;;9.60;5.12;;;;;;;9.42;58.99;98580.46;4300553;80;28517;-84
2022/12/07 18:37:40;;;;;;;11.20;5.55;;;;;;;9.19;59.43;98584.80;4255856;82;28527;-85
2022/12/07 18:43:41;;;;;;;9.68;5.30;;;;;;;9.58;58.76;98576.23;4177229;84;28561;-82
2022/12/07 18:49:43;;;;;;;8.90;5.10;;;;;;;9.48;58.49;98576.85;4193105;83;28503;-83
2022/12/07 18:55:49;;;;;;;11.45;5.20;;;;;;;9.51;58.57;98572.34;4193084;83;28515;-87
2022/12/07 19:01:53;;;;;;;9.43;5.37;;;;;;;9.63;57.82;98567.77;4190654;83;28515;-87
2022/12/07 19:07:56;;;;;;;8.60;4.37;;;;;;;9.47;57.93;98580.56;4157284;85;28553;-88
2022/12/07 19:13:59;;;;;;;11.88;5.90;;;;;;;9.54;57.93;98585.83;4151640;83;28592;-79
2022/12/07 19:20:05;;;;;;;11.80;5.05;;;;;;;9.75;57.48;98585.72;4177189;84;28538;-87
2022/12/07 19:26:08;;;;;;;9.85;5.30;;;;;;;9.67;57.86;98591.45;4190270;83;28561;-81
2022/12/07 19:32:11;;;;;;;10.60;5.20;;;;;;;9.78;57.51;98593.83;4174822;83;28433;-82
2022/12/07 19:38:18;;;;;;;13.65;7.28;;;;;;;9.61;58.03;98582.47;4202074;82;28542;-82
2022/12/07 19:44:26;;;;;;;15.43;8.53;;;;;;;9.79;57.74;98584.21;4202310;83;29112;-79
2022/12/07 19:50:28;;;;;;;16.02;7.95;;;;;;;9.72;58.10;98581.63;4188651;83;28556;-86
2022/12/07 19:56:30;;;;;;;17.62;8.03;;;;;;;9.82;58.08;98572.98;4179642;84;28471;-82
2022/12/07 20:02:32;;;;;;;16.30;8.20;;;;;;;9.97;57.67;98572.99;4184423;83;28570;-87
2022/12/07 20:08:33;;;;;;;15.88;8.43;;;;;;;9.81;57.78;98588.81;4238185;83;28527;-84
2022/12/07 20:14:35;;;;;;;14.40;7.25;;;;;;;9.94;57.94;98586.91;4211661;83;28542;-85
2022/12/07 20:20:36;;;;;;;15.38;7.60;;;;;;;9.75;58.16;98589.23;4172970;83;28502;-86
2022/12/07 20:26:39;;;;;;;17.32;7.58;;;;;;;9.66;58.23;98590.64;4226242;83;28566;-83
2022/12/07 20:32:40;;;;;;;14.90;7.15;;;;;;;9.71;58.18;98584.57;4216860;83;28517;-83
2022/12/07 20:38:43;;;;;;;11.90;6.25;;;;;;;9.64;58.59;98588.73;4277582;81;28536;-82
2022/12/07 20:44:45;;;;;;;14.80;6.62;;;;;;;9.70;58.45;98593.68;4296745;82;28479;-83
2022/12/07 20:50:49;;;;;;;11.95;6.33;;;;;;;9.53;58.41;98594.39;4290735;82;28523;-84
2022/12/07 20:56:51;;;;;;;9.90;5.47;;;;;;;9.66;58.25;98600.04;4268776;82;28553;-84
2022/12/07 21:02:52;;;;;;;11.33;6.03;;;;;;;9.51;58.57;98608.58;4269854;82;28570;-84
2022/12/07 21:08:58;;;;;;;9.40;5.28;;;;;;;9.60;58.29;98598.28;4305044;81;28536;-83
2022/12/07 21:14:59;;;;;;;11.23;5.80;;;;;;;9.45;58.72;98601.45;4306618;82;28496;-83
2022/12/07 21:21:01;;;;;;;11.70;5.47;;;;;;;9.47;57.87;98602.86;4324743;81;28511;-83
2022/12/07 21:27:03;;;;;;;9.68;5.10;;;;;;;9.70;57.66;98605.22;4286167;82;28501;-85
2022/12/07 21:33:06;;;;;;;10.23;4.72;;;;;;;9.73;57.34;98603.39;4266985;82;28543;-82
2022/12/07 21:39:08;;;;;;;11.08;5.03;;;;;;;9.63;57.56;98601.32;4261306;82;28549;-85
2022/12/07 21:45:09;;;;;;;8.80;4.80;;;;;;;9.66;56.86;98604.06;4259998;83;28495;-85
2022/12/07 21:51:13;;;;;;;9.25;4.22;;;;;;;9.83;56.80;98603.32;4261273;82;28487;-84
2022/12/07 21:57:27;;;;;;;7.28;3.85;;;;;;;9.68;56.79;98603.30;4255570;82;28603;-85
2022/12/07 22:03:28;;;;;;;8.90;3.87;;;;;;;9.65;56.64;98611.83;4242052;82;28471;-87
2022/12/07 22:09:33;;;;;;;7.78;3.60;;;;;;;9.70;56.58;98610.59;4252366;82;28525;-87
2022/12/07 22:15:45;;;;;;;7.20;3.25;;;;;;;9.66;56.31;98609.44;4230773;84;28575;-87
2022/12/07 22:21:44;;;;;;;6.33;2.90;;;;;;;9.80;55.97;98615.88;4250512;82;28538;-86
2022/12/07 22:27:50;;;;;;;6.47;3.58;;;;;;;10.00;56.04;98619.53;4253236;82;28541;-85
2022/12/07 22:33:51;;;;;;;7.20;3.15;;;;;;;9.80;56.24;98616.72;4224127;82;28525;-86
2022/12/07 22:39:57;;;;;;;8.45;3.33;;;;;;;9.90;55.82;98615.59;4254537;82;28515;-86
2022/12/07 22:46:02;;;;;;;6.05;2.95;;;;;;;9.94;56.20;98621.27;4245742;82;28519;-85
2022/12/07 22:52:05;;;;;;;7.42;3.27;;;;;;;9.93;55.68;98610.78;4234344;82;28544;-85
2022/12/07 22:58:09;;;;;;;7.42;3.25;;;;;;;9.76;55.34;98614.20;4259145;82;28569;-86
2022/12/07 23:04:14;;;;;;;7.80;3.22;;;;;;;9.58;56.02;98616.50;4258365;82;28543;-85
2022/12/07 23:10:18;;;;;;;7.58;3.45;;;;;;;9.59;56.23;98616.78;4222331;82;28498;-87
2022/12/07 23:16:22;;;;;;;6.87;3.45;;;;;;;9.52;56.17;98616.09;4257090;82;28558;-86
2022/12/07 23:22:23;;;;;;;6.53;3.05;;;;;;;9.45;56.20;98622.41;4286393;81;28937;-81
2022/12/07 23:28:25;;;;;;;4.28;2.58;;;;;;;9.57;56.32;98618.36;4262844;82;28559;-79
2022/12/07 23:34:26;;;;;;;5.22;2.65;;;;;;;9.51;56.32;98613.11;4282184;82;28547;-80
2022/12/07 23:40:28;;;;;;;6.60;3.08;;;;;;;9.67;56.39;98615.09;4261129;82;28617;-79
2022/12/07 23:46:32;;;;;;;5.87;3.00;;;;;;;9.54;56.58;98614.80;4176513;84;28516;-81
2022/12/07 23:52:33;;;;;;;6.25;2.77;;;;;;;9.55;56.02;98626.37;4113654;84;28532;-80
2022/12/07 23:58:34;;;;;;;4.45;2.47;;;;;;;9.48;56.55;98623.81;4164979;84;28582;-78
